createdAt,value
2023-03-22T00:00:00.618Z,100747.09
2023-03-22T00:05:04.921Z,100747.28
2023-03-22T00:10:08.387Z,100742.91
2023-03-22T00:15:12.009Z,100738.66
2023-03-22T00:20:19.620Z,100733.34
2023-03-22T00:25:23.094Z,100735.19
2023-03-22T00:30:25.760Z,100728.25
2023-03-22T00:35:29.592Z,100719.63
2023-03-22T00:40:32.318Z,100718.00
2023-03-22T00:45:36.241Z,100718.00
2023-03-22T00:50:41.695Z,100704.97
2023-03-22T00:55:44.194Z,100700.69
2023-03-22T01:00:46.769Z,100701.53
2023-03-22T01:05:55.235Z,100695.50
2023-03-22T01:10:57.729Z,100696.28
2023-03-22T01:16:00.252Z,100686.75
2023-03-22T01:21:04.155Z,100686.75
2023-03-22T01:26:07.198Z,100674.25
2023-03-22T01:31:09.716Z,100661.84
2023-03-22T01:36:13.644Z,100662.53
2023-03-22T01:41:17.126Z,100663.09
2023-03-22T01:46:19.617Z,100660.78
2023-03-22T01:51:25.878Z,100647.09
2023-03-22T01:56:32.274Z,100643.19
2023-03-22T02:01:36.231Z,100637.88
2023-03-22T02:06:40.312Z,100620.97
2023-03-22T02:11:45.037Z,100620.72
2023-03-22T02:16:57.939Z,100627.50
2023-03-22T02:22:30.745Z,100617.66
2023-03-22T02:27:47.288Z,100608.72
2023-03-22T02:33:06.593Z,100616.44
2023-03-22T02:38:59.709Z,100614.53
2023-03-22T02:44:09.923Z,100620.50
2023-03-22T02:49:21.020Z,100616.81
2023-03-22T02:54:29.556Z,100606.09
2023-03-22T02:59:37.436Z,100611.34
2023-03-22T03:04:45.598Z,100602.44
2023-03-22T03:09:51.216Z,100598.63
2023-03-22T03:14:53.766Z,100595.03
2023-03-22T03:20:12.124Z,100593.03
2023-03-22T03:25:30.211Z,100585.09
2023-03-22T03:30:40.661Z,100579.75
2023-03-22T03:35:50.720Z,100588.69
2023-03-22T03:41:00.037Z,100588.03
2023-03-22T03:46:02.897Z,100584.72
2023-03-22T03:51:05.679Z,100579.53
2023-03-22T03:56:10.014Z,100573.56
2023-03-22T04:01:12.653Z,100583.25
2023-03-22T04:06:15.138Z,100588.59
2023-03-22T04:11:18.975Z,100573.84
2023-03-22T04:16:24.931Z,100570.41
2023-03-22T04:21:27.534Z,100559.03
2023-03-22T04:26:31.578Z,100553.03
2023-03-22T04:31:35.672Z,100549.69
2023-03-22T04:36:39.860Z,100561.06
2023-03-22T04:41:43.717Z,100525.25
2023-03-22T04:46:46.270Z,100539.28
2023-03-22T04:51:51.814Z,100533.22
2023-03-22T04:56:55.716Z,100534.09
2023-03-22T05:01:58.293Z,100536.66
2023-03-22T05:07:00.929Z,100531.47
2023-03-22T05:12:04.820Z,100525.34
2023-03-22T05:17:07.301Z,100516.66
2023-03-22T05:22:11.895Z,100511.34
2023-03-22T05:27:15.707Z,100519.22
2023-03-22T05:32:18.313Z,100508.81
2023-03-22T05:37:21.061Z,100514.84
2023-03-22T05:42:24.858Z,100520.91
2023-03-22T05:47:27.331Z,100519.22
2023-03-22T05:52:29.846Z,100510.41
2023-03-22T05:57:33.906Z,100516.66
2023-03-22T06:02:36.779Z,100512.47
2023-03-22T06:07:39.835Z,100513.56
2023-03-22T06:12:43.696Z,100507.56
2023-03-22T06:17:46.428Z,100502.59
2023-03-22T06:22:48.913Z,100505.22
2023-03-22T06:27:52.749Z,100509.69
2023-03-22T06:32:55.338Z,100502.84
2023-03-22T06:37:57.957Z,100500.44
2023-03-22T06:43:05.150Z,100500.69
2023-03-22T06:48:08.944Z,100494.88
2023-03-22T06:53:11.469Z,100497.13
2023-03-22T06:58:15.273Z,100487.06
2023-03-22T07:03:17.726Z,100491.81
2023-03-22T07:08:20.270Z,100487.59
2023-03-22T07:13:24.255Z,100484.91
2023-03-22T07:18:27.571Z,100489.56
2023-03-22T07:23:30.121Z,100487.50
2023-03-22T07:28:34.311Z,100491.88
2023-03-22T07:33:36.834Z,100482.09
2023-03-22T07:38:39.358Z,100494.13
2023-03-22T07:43:54.020Z,100475.34
2023-03-22T07:48:57.842Z,100474.97
2023-03-22T07:54:00.364Z,100478.97
2023-03-22T07:59:04.309Z,100468.13
2023-03-22T08:04:06.860Z,100475.94
2023-03-22T08:09:09.487Z,100473.50
2023-03-22T08:14:13.280Z,100472.63
2023-03-22T08:19:15.901Z,100482.97
2023-03-22T08:24:18.377Z,100472.06
2023-03-22T08:29:23.566Z,100467.31
2023-03-22T08:34:26.076Z,100464.38
2023-03-22T08:39:28.569Z,100470.84
2023-03-22T08:44:32.833Z,100461.56
2023-03-22T08:49:35.689Z,100458.41
2023-03-22T08:54:38.636Z,100452.63
2023-03-22T08:59:42.491Z,100449.47
2023-03-22T09:04:45.024Z,100439.25
2023-03-22T09:09:47.680Z,100428.25
2023-03-22T09:14:51.756Z,100421.75
2023-03-22T09:20:06.024Z,100410.09
2023-03-22T09:25:13.831Z,100413.28
2023-03-22T09:30:17.664Z,100406.53
2023-03-22T09:35:20.221Z,100399.13
2023-03-22T09:40:26.734Z,100393.63
2023-03-22T09:45:38.376Z,100383.38
2023-03-22T09:50:46.460Z,100376.53
2023-03-22T09:55:55.892Z,100374.19
2023-03-22T10:01:03.401Z,100358.50
2023-03-22T10:06:09.896Z,100361.31
2023-03-22T10:11:22.288Z,100359.66
2023-03-22T10:16:29.613Z,100347.47
2023-03-22T10:21:33.889Z,100341.41
2023-03-22T10:26:40.485Z,100342.63
2023-03-22T10:31:45.933Z,100340.34
2023-03-22T10:36:51.832Z,100339.75
2023-03-22T10:41:57.970Z,100336.47
2023-03-22T10:47:08.026Z,100327.78
2023-03-22T10:52:24.832Z,100313.88
2023-03-22T10:57:27.403Z,100306.03
2023-03-22T11:02:32.807Z,100290.22
2023-03-22T11:07:38.070Z,100287.72
2023-03-22T11:12:43.547Z,100289.81
2023-03-22T11:17:47.618Z,100295.28
2023-03-22T11:22:52.069Z,100282.94
2023-03-22T11:27:56.794Z,100269.84
2023-03-22T11:33:17.558Z,100276.44
2023-03-22T11:38:29.451Z,100279.75
2023-03-22T11:43:38.567Z,100269.00
2023-03-22T11:48:43.488Z,100259.75
2023-03-22T11:53:48.689Z,100252.88
2023-03-22T11:58:59.922Z,100250.16
2023-03-22T12:04:09.654Z,100248.00
2023-03-22T12:09:23.127Z,100247.78
2023-03-22T12:14:29.592Z,100240.56
2023-03-22T12:19:46.277Z,100230.00
2023-03-22T12:24:48.951Z,100237.25
2023-03-22T12:29:57.558Z,100236.72
2023-03-22T12:35:18.084Z,100235.13
2023-03-22T12:40:25.119Z,100240.63
2023-03-22T12:45:30.102Z,100237.97
2023-03-22T12:50:38.052Z,100250.00
2023-03-22T12:55:41.975Z,100244.56
2023-03-22T13:00:49.636Z,100240.91
2023-03-22T13:06:03.046Z,100236.19
2023-03-22T13:11:06.284Z,100236.16
2023-03-22T13:16:19.300Z,100245.72
2023-03-22T13:21:24.539Z,100249.31
2023-03-22T13:26:34.494Z,100249.22
2023-03-22T13:31:41.715Z,100242.97
2023-03-22T13:36:53.695Z,100224.44
2023-03-22T13:42:06.983Z,100217.47
2023-03-22T13:47:30.587Z,100217.59
2023-03-22T13:52:41.242Z,100217.81
2023-03-22T13:57:50.816Z,100219.75
2023-03-22T14:02:55.017Z,100207.53
2023-03-22T14:08:01.041Z,100218.09
2023-03-22T14:13:06.785Z,100203.91
2023-03-22T14:18:15.764Z,100223.28
